Time;durP1;ratioP1;P1;durP2;ratioP2;P2;SDS_P1;SDS_P2;PMS_P1;PMS_P2;Temp;Humidity;BMP_temperature;BMP_pressure;BME280_temperature;BME280_humidity;BME280_pressure;Samples;Min_cycle;Max_cycle;Signal;HPM_P1;HPM_P2
2021/06/03 00:00:58;;;;;;;8.63;3.58;;;22.60;93.10;;;;;;1778097;79;21198;-75
2021/06/03 00:03:27;;;;;;;4.95;2.90;;;22.60;93.10;;;;;;1787034;78;21216;-74
2021/06/03 00:05:58;;;;;;;6.33;3.40;;;22.50;93.00;;;;;;1787783;78;21225;-75
2021/06/03 00:08:27;;;;;;;6.40;3.25;;;22.60;93.10;;;;;;1789890;78;21115;-75
2021/06/03 00:10:58;;;;;;;5.40;3.40;;;22.50;93.10;;;;;;1787583;78;21229;-75
2021/06/03 00:13:28;;;;;;;4.75;3.58;;;22.50;93.20;;;;;;1781146;79;21166;-75
2021/06/03 00:15:57;;;;;;;8.20;4.28;;;22.40;93.40;;;;;;1792574;78;21169;-74
2021/06/03 00:18:25;;;;;;;6.05;3.35;;;22.40;93.40;;;;;;1789449;78;21076;-75
2021/06/03 00:20:53;;;;;;;8.03;3.37;;;22.50;93.30;;;;;;1784192;78;21806;-74
2021/06/03 00:23:21;;;;;;;8.95;3.50;;;22.50;93.30;;;;;;1786283;79;21062;-74
2021/06/03 00:25:48;;;;;;;5.58;3.55;;;22.40;93.50;;;;;;1781031;79;21103;-74
2021/06/03 00:28:17;;;;;;;6.75;3.75;;;22.40;93.40;;;;;;1781267;79;21064;-74
2021/06/03 00:30:46;;;;;;;9.10;3.92;;;22.40;93.50;;;;;;1783261;79;21815;-74
2021/06/03 00:33:14;;;;;;;6.30;3.45;;;22.40;93.50;;;;;;1781067;79;21103;-74
2021/06/03 00:35:42;;;;;;;6.55;4.00;;;22.30;93.60;;;;;;1781524;79;21135;-74
2021/06/03 00:38:10;;;;;;;9.63;3.95;;;22.30;93.70;;;;;;1784188;79;21480;-74
2021/06/03 00:40:37;;;;;;;9.23;4.30;;;22.20;93.90;;;;;;1784736;79;21154;-74
2021/06/03 00:43:06;;;;;;;12.60;3.58;;;22.20;93.90;;;;;;1782336;79;21218;-73
2021/06/03 00:45:36;;;;;;;9.35;4.00;;;22.20;94.00;;;;;;1781845;79;21193;-74
2021/06/03 00:48:05;;;;;;;10.13;4.25;;;22.20;94.00;;;;;;1782539;79;21554;-72
2021/06/03 00:50:42;;;;;;;9.15;3.95;;;22.20;94.00;;;;;;1780422;79;21139;-74
2021/06/03 00:53:11;;;;;;;6.83;4.00;;;22.20;94.10;;;;;;1781099;79;21108;-74
2021/06/03 00:55:41;;;;;;;5.42;3.62;;;22.20;94.20;;;;;;1782821;79;21217;-74
2021/06/03 00:58:09;;;;;;;9.35;4.10;;;22.10;94.10;;;;;;1782915;79;21065;-75
2021/06/03 01:00:37;;;;;;;7.55;3.90;;;22.10;94.20;;;;;;1781342;79;21148;-74
2021/06/03 01:03:06;;;;;;;8.08;4.17;;;22.10;94.30;;;;;;1782510;79;21186;-73
2021/06/03 01:05:40;;;;;;;7.00;4.20;;;22.10;94.30;;;;;;1779887;79;21198;-75
2021/06/03 01:08:13;;;;;;;7.35;4.08;;;22.10;94.30;;;;;;1781756;79;21124;-74
2021/06/03 01:10:53;;;;;;;5.97;3.90;;;22.00;94.40;;;;;;1781561;79;21056;-74
2021/06/03 01:13:29;;;;;;;6.30;3.92;;;22.00;94.50;;;;;;1785901;79;21156;-74
2021/06/03 01:15:58;;;;;;;9.13;4.55;;;22.00;94.50;;;;;;1753271;79;21108;-73
2021/06/03 01:18:26;;;;;;;13.03;4.25;;;21.90;94.70;;;;;;1783992;79;21116;-74
2021/06/03 01:20:57;;;;;;;7.50;4.20;;;21.80;94.80;;;;;;1783229;79;21203;-72
2021/06/03 01:23:30;;;;;;;10.85;4.55;;;21.80;95.30;;;;;;1784504;79;21178;-72
2021/06/03 01:25:58;;;;;;;6.75;3.92;;;21.80;94.90;;;;;;1782863;79;22201;-72
2021/06/03 01:28:27;;;;;;;10.32;4.22;;;21.80;94.90;;;;;;1783381;79;21130;-72
2021/06/03 01:30:57;;;;;;;7.75;4.15;;;21.80;94.90;;;;;;1782030;79;21234;-73
2021/06/03 01:33:28;;;;;;;6.20;4.47;;;21.80;95.00;;;;;;1782456;79;21119;-72
2021/06/03 01:35:58;;;;;;;12.65;4.22;;;21.80;95.00;;;;;;1781854;79;21132;-73
2021/06/03 01:38:29;;;;;;;6.87;3.80;;;21.70;95.10;;;;;;1779137;79;21093;-73
2021/06/03 01:40:59;;;;;;;10.23;4.10;;;21.70;95.20;;;;;;1783017;79;21543;-73
2021/06/03 01:43:29;;;;;;;5.72;4.55;;;21.70;95.20;;;;;;1783912;79;21120;-73
2021/06/03 01:45:58;;;;;;;12.60;4.25;;;21.70;95.30;;;;;;1780444;80;21092;-73
2021/06/03 01:48:26;;;;;;;5.72;4.37;;;21.70;95.30;;;;;;1781996;79;21174;-73
2021/06/03 01:50:56;;;;;;;10.18;4.50;;;21.70;95.40;;;;;;1782876;79;21203;-73
2021/06/03 01:53:26;;;;;;;7.83;4.03;;;21.70;95.30;;;;;;1781203;79;21065;-73
2021/06/03 01:55:55;;;;;;;9.00;4.12;;;21.60;95.40;;;;;;1784685;79;21127;-73
2021/06/03 01:58:23;;;;;;;5.60;3.80;;;21.60;95.50;;;;;;1785915;79;21660;-72
2021/06/03 02:00:52;;;;;;;12.50;4.12;;;21.60;95.60;;;;;;1781041;79;21147;-73
2021/06/03 02:03:27;;;;;;;9.33;3.70;;;21.60;95.70;;;;;;1783412;79;21088;-73
2021/06/03 02:05:56;;;;;;;7.95;4.40;;;21.60;95.70;;;;;;1783445;79;21096;-73
2021/06/03 02:08:23;;;;;;;8.40;4.10;;;21.60;95.70;;;;;;1785765;80;22277;-73
2021/06/03 02:10:52;;;;;;;10.10;4.15;;;21.60;95.90;;;;;;1782612;79;21586;-72
2021/06/03 02:13:24;;;;;;;6.75;3.87;;;21.60;95.70;;;;;;1782779;79;21061;-73
2021/06/03 02:16:17;;;;;;;11.68;3.75;;;21.40;95.90;;;;;;1789795;78;21038;-72
2021/06/03 02:18:50;;;;;;;9.50;4.10;;;21.40;96.00;;;;;;1782511;79;21126;-72
2021/06/03 02:21:19;;;;;;;7.78;3.92;;;21.40;96.00;;;;;;1779860;79;21139;-73
2021/06/03 02:23:48;;;;;;;5.83;3.80;;;21.50;96.20;;;;;;1785001;79;21555;-72
2021/06/03 02:26:17;;;;;;;5.83;3.83;;;21.40;96.00;;;;;;1782605;79;21104;-75
2021/06/03 02:28:45;;;;;;;10.30;4.22;;;21.30;96.10;;;;;;1782377;79;21226;-73
2021/06/03 02:31:13;;;;;;;6.85;4.20;;;21.40;96.20;;;;;;1782918;79;21163;-74
2021/06/03 02:33:43;;;;;;;6.17;3.80;;;21.40;96.10;;;;;;1781601;79;21393;-75
2021/06/03 02:36:11;;;;;;;11.95;4.87;;;21.40;96.40;;;;;;1784286;79;21128;-75
2021/06/03 02:38:40;;;;;;;10.80;4.20;;;21.30;96.20;;;;;;1783821;79;21593;-74
2021/06/03 02:41:09;;;;;;;7.58;4.05;;;21.30;96.20;;;;;;1779554;79;21191;-74
2021/06/03 02:43:39;;;;;;;6.17;4.03;;;21.20;96.50;;;;;;1783284;79;21139;-74
2021/06/03 02:46:06;;;;;;;13.88;4.67;;;21.20;96.30;;;;;;1780800;79;21158;-74
2021/06/03 02:48:34;;;;;;;8.38;4.42;;;21.20;96.40;;;;;;1783058;79;21193;-72
2021/06/03 02:51:01;;;;;;;8.03;4.22;;;21.20;96.50;;;;;;1784302;79;21136;-73
2021/06/03 02:53:29;;;;;;;9.18;4.45;;;21.20;96.60;;;;;;1782050;79;21139;-73
2021/06/03 02:55:57;;;;;;;9.85;4.50;;;21.20;96.50;;;;;;1782181;79;21204;-73
2021/06/03 02:58:26;;;;;;;10.65;4.90;;;21.10;96.70;;;;;;1784402;79;21175;-72
2021/06/03 03:00:53;;;;;;;10.48;4.37;;;21.10;96.70;;;;;;1780844;79;21167;-72
2021/06/03 03:03:21;;;;;;;6.75;4.12;;;21.10;96.80;;;;;;1781496;79;21065;-73
2021/06/03 03:05:48;;;;;;;8.88;4.70;;;21.00;96.90;;;;;;1782093;79;21671;-73
2021/06/03 03:08:16;;;;;;;7.28;4.17;;;21.00;97.00;;;;;;1780743;79;21586;-73
2021/06/03 03:10:47;;;;;;;11.15;4.50;;;21.00;97.00;;;;;;1781872;79;21227;-72
2021/06/03 03:13:16;;;;;;;11.03;4.75;;;20.90;97.00;;;;;;1781696;79;21131;-73
2021/06/03 03:15:45;;;;;;;6.05;4.40;;;21.00;97.10;;;;;;1782933;79;21156;-73
2021/06/03 03:18:12;;;;;;;10.48;4.70;;;21.00;96.90;;;;;;1781920;79;21618;-72
2021/06/03 03:20:41;;;;;;;8.23;5.00;;;20.90;97.10;;;;;;1784387;79;21672;-72
2021/06/03 03:23:10;;;;;;;8.68;4.60;;;20.90;97.30;;;;;;1778714;79;21195;-72
2021/06/03 03:25:41;;;;;;;8.88;4.40;;;20.90;97.30;;;;;;1777349;79;21143;-72
2021/06/03 03:28:08;;;;;;;8.83;4.70;;;20.90;97.20;;;;;;1777392;79;21229;-72
2021/06/03 03:30:41;;;;;;;6.30;4.50;;;20.90;97.40;;;;;;1781367;79;21037;-72
2021/06/03 03:33:07;;;;;;;11.23;4.90;;;20.90;97.20;;;;;;1781508;79;21045;-72
2021/06/03 03:35:35;;;;;;;6.78;4.47;;;20.90;97.30;;;;;;1779634;79;21426;-72
2021/06/03 03:38:02;;;;;;;10.55;4.62;;;20.90;97.30;;;;;;1780438;79;21697;-72
2021/06/03 03:40:30;;;;;;;9.10;5.15;;;20.80;97.50;;;;;;1783181;79;21045;-72
2021/06/03 03:42:58;;;;;;;7.47;4.75;;;20.80;97.40;;;;;;1780122;79;22185;-73
2021/06/03 03:45:27;;;;;;;11.88;4.67;;;20.80;97.50;;;;;;1777340;79;21144;-72
2021/06/03 03:47:55;;;;;;;7.60;4.72;;;20.80;97.60;;;;;;1779242;79;21629;-72
2021/06/03 03:50:23;;;;;;;12.07;5.03;;;20.70;97.70;;;;;;1777704;79;21194;-72
2021/06/03 03:52:51;;;;;;;11.08;5.30;;;20.70;97.70;;;;;;1780079;79;21261;-74
2021/06/03 03:55:19;;;;;;;8.35;4.83;;;20.80;97.60;;;;;;1778598;79;21210;-73
2021/06/03 03:57:48;;;;;;;6.95;4.37;;;20.70;97.90;;;;;;1814297;72;21261;-71
2021/06/03 04:00:19;;;;;;;10.53;5.08;;;20.80;97.70;;;;;;1814703;77;21694;-71
2021/06/03 04:02:47;;;;;;;7.80;4.90;;;20.70;97.70;;;;;;1819901;77;21132;-72
2021/06/03 04:05:15;;;;;;;6.10;4.60;;;20.70;98.00;;;;;;1814778;77;21104;-72
2021/06/03 04:07:43;;;;;;;7.03;4.95;;;20.70;98.10;;;;;;1818250;77;21109;-72
2021/06/03 04:10:14;;;;;;;8.43;4.50;;;20.70;98.00;;;;;;1811774;78;21120;-71
2021/06/03 04:12:42;;;;;;;10.40;5.20;;;20.70;98.10;;;;;;1816388;77;21147;-70
2021/06/03 04:15:10;;;;;;;10.32;5.22;;;20.70;98.00;;;;;;1814645;78;21150;-71
2021/06/03 04:17:38;;;;;;;10.60;5.10;;;20.70;98.50;;;;;;1816574;77;21089;-71
2021/06/03 04:20:09;;;;;;;9.55;5.15;;;20.80;98.10;;;;;;1825262;77;21463;-70
2021/06/03 04:22:36;;;;;;;11.63;5.35;;;20.70;98.20;;;;;;1812967;78;21112;-71
2021/06/03 04:25:06;;;;;;;9.48;4.95;;;20.70;98.10;;;;;;1818953;77;21634;-71
2021/06/03 04:27:33;;;;;;;6.78;4.97;;;20.70;98.30;;;;;;1814883;77;21157;-71
2021/06/03 04:30:01;;;;;;;10.50;5.40;;;20.70;98.30;;;;;;1820682;77;21143;-71
2021/06/03 04:32:29;;;;;;;10.50;5.30;;;20.80;98.30;;;;;;1812024;78;21180;-72
2021/06/03 04:34:56;;;;;;;9.10;5.40;;;20.80;98.30;;;;;;1817207;78;21183;-71
2021/06/03 04:37:24;;;;;;;8.40;4.95;;;20.70;98.40;;;;;;1825871;77;21202;-71
2021/06/03 04:39:52;;;;;;;10.00;5.40;;;20.70;98.60;;;;;;1812956;77;21081;-71
2021/06/03 04:42:20;;;;;;;7.17;4.83;;;20.70;98.40;;;;;;1816031;77;21120;-72
2021/06/03 04:44:47;;;;;;;8.35;4.80;;;20.70;98.80;;;;;;1816903;78;21097;-72
2021/06/03 04:47:15;;;;;;;7.62;4.70;;;20.70;98.70;;;;;;1817351;77;21231;-71
2021/06/03 04:49:42;;;;;;;8.95;5.22;;;20.60;98.70;;;;;;1826524;77;21147;-72
2021/06/03 04:52:25;;;;;;;11.22;4.90;;;20.70;98.70;;;;;;1822568;77;21065;-72
2021/06/03 04:54:58;;;;;;;9.80;5.08;;;20.60;99.10;;;;;;1819297;78;21145;-71
2021/06/03 04:57:27;;;;;;;9.08;4.90;;;20.70;98.80;;;;;;1817129;78;21093;-71
2021/06/03 04:59:55;;;;;;;6.28;4.58;;;20.70;98.70;;;;;;1814990;78;21158;-71
2021/06/03 05:02:24;;;;;;;6.78;5.17;;;20.70;98.80;;;;;;1821080;77;21150;-72
2021/06/03 05:04:53;;;;;;;8.68;4.53;;;20.70;98.70;;;;;;1814608;78;21199;-73
2021/06/03 05:07:21;;;;;;;8.38;5.22;;;20.60;99.10;;;;;;1815528;77;21195;-73
2021/06/03 05:09:49;;;;;;;9.10;4.95;;;20.60;99.00;;;;;;1814741;77;21606;-71
2021/06/03 05:12:16;;;;;;;10.08;4.80;;;20.70;99.00;;;;;;1819181;77;21123;-71
2021/06/03 05:14:44;;;;;;;9.60;5.10;;;20.70;98.90;;;;;;1814457;78;21103;-71
2021/06/03 05:17:12;;;;;;;8.13;5.25;;;20.80;98.90;;;;;;1820262;77;21058;-71
2021/06/03 05:19:39;;;;;;;9.48;5.00;;;20.80;98.70;;;;;;1819970;77;21135;-71
2021/06/03 05:22:07;;;;;;;5.15;4.40;;;20.90;98.70;;;;;;1815182;77;21045;-71
2021/06/03 05:24:35;;;;;;;6.50;4.75;;;21.00;98.80;;;;;;1816497;78;21109;-71
2021/06/03 05:27:04;;;;;;;13.08;5.30;;;20.90;98.60;;;;;;1818395;77;21618;-71
2021/06/03 05:29:31;;;;;;;13.80;5.42;;;20.90;98.90;;;;;;1817573;77;21125;-73
2021/06/03 05:31:59;;;;;;;7.00;5.00;;;20.90;99.10;;;;;;1817526;77;21199;-71
2021/06/03 05:34:27;;;;;;;8.55;5.60;;;20.90;99.00;;;;;;1815855;77;21441;-71
2021/06/03 05:36:54;;;;;;;6.62;5.03;;;20.90;99.10;;;;;;1816648;77;21148;-71
2021/06/03 05:39:22;;;;;;;10.05;5.25;;;20.90;99.00;;;;;;1815156;77;21105;-70
2021/06/03 05:41:49;;;;;;;7.97;5.55;;;21.00;98.70;;;;;;1816455;77;21241;-70
2021/06/03 05:44:17;;;;;;;8.95;5.25;;;21.00;99.00;;;;;;1820625;77;21586;-71
2021/06/03 05:46:45;;;;;;;7.28;4.90;;;21.10;98.80;;;;;;1817875;78;21070;-71
2021/06/03 05:49:13;;;;;;;7.97;5.17;;;21.10;99.10;;;;;;1816142;77;21140;-71
2021/06/03 05:51:42;;;;;;;8.95;4.67;;;21.10;99.10;;;;;;1814254;78;21671;-71
2021/06/03 05:54:11;;;;;;;11.68;5.42;;;21.30;98.70;;;;;;1818701;77;21038;-71
2021/06/03 05:56:39;;;;;;;9.78;5.20;;;21.30;99.00;;;;;;1814904;77;21124;-71
2021/06/03 05:59:07;;;;;;;8.25;5.80;;;21.20;98.80;;;;;;1813867;77;21120;-72
2021/06/03 06:01:36;;;;;;;8.43;5.03;;;21.30;98.70;;;;;;1817689;77;22497;-71
2021/06/03 06:06:33;;;;;;;8.75;5.45;;;21.30;98.70;;;;;;1813197;77;21547;-70
2021/06/03 06:09:07;;;;;;;10.25;5.33;;;21.30;99.10;;;;;;1814584;78;21138;-71
2021/06/03 06:11:37;;;;;;;13.00;5.28;;;21.30;98.90;;;;;;1820032;77;21093;-71
2021/06/03 06:14:07;;;;;;;9.78;4.70;;;21.40;99.00;;;;;;1817445;77;21576;-69
2021/06/03 06:16:38;;;;;;;10.95;5.00;;;21.40;99.10;;;;;;1819268;77;21207;-71
2021/06/03 06:19:06;;;;;;;5.70;4.60;;;21.40;99.40;;;;;;1817242;77;21222;-70
2021/06/03 06:21:35;;;;;;;9.75;4.97;;;21.50;99.40;;;;;;1815881;78;22157;-70
2021/06/03 06:24:04;;;;;;;12.50;5.28;;;21.50;99.20;;;;;;1822072;77;21124;-75
2021/06/03 06:26:33;;;;;;;8.80;4.83;;;21.60;98.80;;;;;;1816399;77;21102;-74
2021/06/03 06:29:01;;;;;;;11.60;5.53;;;21.70;99.00;;;;;;1815392;78;21195;-76
2021/06/03 06:31:28;;;;;;;6.72;4.80;;;21.70;99.60;;;;;;1815084;78;21585;-68
2021/06/03 06:33:56;;;;;;;10.70;5.35;;;21.70;98.80;;;;;;1818309;77;22189;-72
2021/06/03 06:36:24;;;;;;;9.50;5.08;;;21.70;98.80;;;;;;1813731;78;21235;-70
2021/06/03 06:38:52;;;;;;;7.28;5.00;;;21.80;98.80;;;;;;1816882;78;21183;-71
2021/06/03 06:41:19;;;;;;;7.00;4.50;;;21.90;98.90;;;;;;1817742;78;21120;-71
2021/06/03 06:43:47;;;;;;;7.42;4.60;;;21.90;99.00;;;;;;1824870;77;21108;-71
2021/06/03 06:46:14;;;;;;;7.03;4.85;;;22.00;98.60;;;;;;1823130;77;21566;-72
2021/06/03 06:48:42;;;;;;;9.13;5.53;;;22.10;99.10;;;;;;1813880;78;21108;-72
2021/06/03 06:51:09;;;;;;;9.45;4.92;;;22.10;99.00;;;;;;1813056;78;21117;-72
2021/06/03 06:53:37;;;;;;;9.73;5.33;;;22.20;98.80;;;;;;1816257;78;21633;-72
2021/06/03 06:56:04;;;;;;;9.50;5.00;;;22.20;99.00;;;;;;1819590;77;21136;-70
2021/06/03 06:58:32;;;;;;;12.40;4.92;;;22.20;98.60;;;;;;1825753;76;21081;-69
2021/06/03 07:01:02;;;;;;;11.35;4.55;;;22.20;98.50;;;;;;1831055;77;21116;-70
2021/06/03 07:03:28;;;;;;;7.15;4.80;;;22.20;98.80;;;;;;1829379;77;21199;-70
2021/06/03 07:05:56;;;;;;;10.15;5.25;;;22.20;99.30;;;;;;1824131;77;21116;-69
2021/06/03 07:08:23;;;;;;;8.28;5.20;;;22.30;99.10;;;;;;1817569;77;21222;-71
2021/06/03 07:10:54;;;;;;;10.00;5.55;;;22.30;99.20;;;;;;1825251;77;21101;-70
2021/06/03 07:13:20;;;;;;;9.60;5.30;;;22.30;99.80;;;;;;1820090;78;21633;-69
2021/06/03 07:15:48;;;;;;;15.50;6.22;;;22.30;99.90;;;;;;1816449;78;21496;-69
2021/06/03 07:18:15;;;;;;;10.95;5.75;;;22.30;99.90;;;;;;1818713;78;21097;-70
2021/06/03 07:20:43;;;;;;;15.85;5.45;;;22.30;99.90;;;;;;1824891;78;21156;-71
2021/06/03 07:23:10;;;;;;;8.98;5.47;;;22.40;99.90;;;;;;1821708;77;22070;-70
2021/06/03 07:25:44;;;;;;;11.43;5.35;;;22.40;99.90;;;;;;1822700;78;21123;-70
2021/06/03 07:28:10;;;;;;;13.98;4.92;;;22.50;99.90;;;;;;1816690;76;21184;-70
2021/06/03 07:30:38;;;;;;;8.65;4.90;;;22.50;99.90;;;;;;1816396;77;21167;-70
2021/06/03 07:33:07;;;;;;;8.50;5.05;;;22.60;99.90;;;;;;1818201;77;21466;-70
2021/06/03 07:35:36;;;;;;;13.48;5.40;;;22.60;99.90;;;;;;1817279;78;21258;-71
2021/06/03 07:38:05;;;;;;;9.33;5.40;;;22.60;99.90;;;;;;1815230;77;21152;-71
2021/06/03 07:40:36;;;;;;;8.20;4.80;;;22.50;99.40;;;;;;1815152;78;21088;-72
2021/06/03 07:43:06;;;;;;;11.85;4.45;;;22.50;99.70;;;;;;1817850;78;21195;-72
2021/06/03 07:45:34;;;;;;;10.05;5.40;;;22.60;99.80;;;;;;1816809;78;21135;-71
2021/06/03 07:48:02;;;;;;;6.62;4.72;;;22.70;99.20;;;;;;1814320;77;21160;-70
2021/06/03 07:50:33;;;;;;;10.75;4.72;;;22.70;99.90;;;;;;1813518;77;21136;-71
2021/06/03 07:53:02;;;;;;;16.32;6.00;;;22.70;99.90;;;;;;1815700;78;21144;-71
2021/06/03 07:55:30;;;;;;;9.78;5.00;;;22.70;99.90;;;;;;1813783;78;21112;-71
2021/06/03 07:58:01;;;;;;;8.60;5.33;;;22.70;99.90;;;;;;1817205;77;22068;-72
2021/06/03 08:00:30;;;;;;;10.08;5.10;;;22.70;99.90;;;;;;1815157;77;21630;-71
2021/06/03 08:02:58;;;;;;;10.48;5.58;;;22.70;99.90;;;;;;1817981;77;21586;-70
2021/06/03 08:05:27;;;;;;;10.90;4.97;;;22.60;99.90;;;;;;1814979;77;21077;-70
2021/06/03 08:07:55;;;;;;;8.60;4.60;;;22.70;99.90;;;;;;1818424;77;21176;-70
2021/06/03 08:10:26;;;;;;;10.25;4.65;;;22.70;99.90;;;;;;1819610;77;21113;-71
2021/06/03 08:12:56;;;;;;;10.53;5.55;;;22.60;99.90;;;;;;1820401;77;21164;-71
2021/06/03 08:15:25;;;;;;;7.28;5.05;;;22.60;99.90;;;;;;1818555;77;21112;-71
2021/06/03 08:17:53;;;;;;;6.75;4.40;;;22.60;99.90;;;;;;1818808;77;21159;-71
2021/06/03 08:20:24;;;;;;;9.50;4.75;;;22.60;99.90;;;;;;1814034;77;22372;-71
2021/06/03 08:22:51;;;;;;;10.20;5.67;;;22.60;99.90;;;;;;1814534;78;21139;-71
2021/06/03 08:25:19;;;;;;;9.90;5.53;;;22.60;99.90;;;;;;1809609;78;21022;-71
2021/06/03 08:27:47;;;;;;;7.33;5.37;;;22.60;99.90;;;;;;1824485;77;21096;-71
2021/06/03 08:30:17;;;;;;;9.23;4.85;;;22.60;99.90;;;;;;1821765;77;21115;-71
2021/06/03 08:32:47;;;;;;;12.18;5.53;;;22.50;99.90;;;;;;1806681;77;21142;-71
2021/06/03 08:35:17;;;;;;;12.28;5.12;;;22.50;99.90;;;;;;1829674;77;21100;-72
2021/06/03 08:37:47;;;;;;;8.75;5.78;;;22.50;99.90;;;;;;1833502;77;21121;-71
2021/06/03 08:40:18;;;;;;;9.23;5.33;;;22.50;99.90;;;;;;1837474;77;21561;-71
2021/06/03 08:42:46;;;;;;;11.28;5.33;;;22.60;99.90;;;;;;1830858;78;21183;-71
2021/06/03 08:45:14;;;;;;;10.45;5.53;;;22.60;99.90;;;;;;1833487;77;21105;-69
2021/06/03 08:47:42;;;;;;;12.78;5.67;;;22.60;99.90;;;;;;1839337;77;21207;-71
2021/06/03 08:50:11;;;;;;;10.05;5.30;;;22.60;99.90;;;;;;1842995;77;21162;-70
2021/06/03 08:52:39;;;;;;;6.50;4.67;;;22.60;99.90;;;;;;1818011;77;21090;-71
2021/06/03 08:55:12;;;;;;;11.45;4.97;;;22.60;99.90;;;;;;1830831;78;21563;-71
2021/06/03 08:57:38;;;;;;;10.55;5.53;;;22.50;99.90;;;;;;1831947;77;21423;-71
2021/06/03 09:00:07;;;;;;;9.68;4.95;;;22.50;99.90;;;;;;1835554;77;21994;-71
2021/06/03 09:02:35;;;;;;;10.20;5.58;;;22.50;99.90;;;;;;1833948;76;21536;-71
2021/06/03 09:05:02;;;;;;;9.43;5.58;;;22.60;99.90;;;;;;1831940;77;21287;-71
2021/06/03 09:07:36;;;;;;;11.68;5.35;;;22.60;99.90;;;;;;1832238;78;21089;-71
2021/06/03 09:10:32;;;;;;;12.00;5.17;;;22.60;99.90;;;;;;1810569;78;21120;-71
2021/06/03 09:13:20;;;;;;;10.53;5.22;;;22.60;99.90;;;;;;1803462;78;21164;-71
2021/06/03 09:15:51;;;;;;;7.85;4.97;;;22.60;99.90;;;;;;1818059;77;21182;-71
2021/06/03 09:18:35;;;;;;;9.38;5.37;;;22.60;99.90;;;;;;1818113;78;21142;-70
2021/06/03 09:21:17;;;;;;;7.87;4.75;;;22.60;99.90;;;;;;1819353;78;21128;-70
2021/06/03 09:23:59;;;;;;;6.97;4.53;;;22.60;99.90;;;;;;1829913;78;21120;-71
2021/06/03 09:26:29;;;;;;;6.85;4.65;;;22.60;99.90;;;;;;1831534;77;21175;-70
2021/06/03 09:28:59;;;;;;;8.73;5.15;;;22.60;99.90;;;;;;1831704;78;21195;-70
2021/06/03 09:31:29;;;;;;;8.25;4.42;;;22.60;99.90;;;;;;1819069;78;21179;-71
2021/06/03 09:34:07;;;;;;;13.18;4.97;;;22.60;99.90;;;;;;1826231;78;21112;-71
2021/06/03 09:36:55;;;;;;;13.95;5.30;;;22.60;99.90;;;;;;1828567;77;21523;-70
2021/06/03 09:39:30;;;;;;;11.83;5.72;;;22.70;99.90;;;;;;1826230;77;21117;-71
2021/06/03 09:42:07;;;;;;;12.82;4.75;;;22.80;99.90;;;;;;1832373;78;21104;-72
2021/06/03 09:44:39;;;;;;;9.50;5.20;;;22.70;99.90;;;;;;1834419;77;21071;-71
2021/06/03 09:47:09;;;;;;;11.05;5.28;;;22.80;99.90;;;;;;1835999;77;21199;-71
2021/06/03 09:49:40;;;;;;;16.23;5.90;;;22.90;99.90;;;;;;1839133;77;21121;-71
2021/06/03 09:52:13;;;;;;;10.98;5.60;;;22.90;99.90;;;;;;1860074;77;21104;-71
2021/06/03 09:54:42;;;;;;;14.60;5.95;;;22.90;99.90;;;;;;1828097;78;21104;-72
2021/06/03 09:57:12;;;;;;;7.20;5.08;;;22.90;99.90;;;;;;1811830;78;21144;-72
2021/06/03 09:59:45;;;;;;;10.75;5.40;;;23.00;99.90;;;;;;1860762;77;21174;-71
2021/06/03 10:02:14;;;;;;;9.50;5.42;;;23.00;99.90;;;;;;1846085;77;21085;-70
2021/06/03 10:04:49;;;;;;;9.38;5.17;;;23.10;99.90;;;;;;1812084;78;21203;-71
2021/06/03 10:07:19;;;;;;;7.87;5.40;;;23.10;99.90;;;;;;1832225;77;21101;-71
2021/06/03 10:10:04;;;;;;;11.63;5.25;;;23.20;99.90;;;;;;1832828;78;21018;-71
2021/06/03 10:12:43;;;;;;;10.25;5.33;;;23.20;99.90;;;;;;1827568;77;21065;-71
2021/06/03 10:15:17;;;;;;;11.93;5.15;;;23.30;99.90;;;;;;1839868;77;21112;-71
2021/06/03 10:17:50;;;;;;;10.38;5.10;;;23.30;99.90;;;;;;1825483;77;21190;-71
2021/06/03 10:20:26;;;;;;;7.72;4.87;;;23.30;99.90;;;;;;1827244;77;21077;-72
2021/06/03 10:22:54;;;;;;;8.45;4.83;;;23.40;99.90;;;;;;1828144;77;21609;-71
2021/06/03 10:25:23;;;;;;;7.62;5.62;;;23.50;99.90;;;;;;1828881;77;21155;-71
2021/06/03 10:28:02;;;;;;;12.98;4.75;;;23.50;99.90;;;;;;1827211;77;21267;-71
2021/06/03 10:30:33;;;;;;;7.35;5.42;;;23.50;99.90;;;;;;1781904;77;21157;-71
2021/06/03 10:33:06;;;;;;;8.63;5.15;;;23.60;99.90;;;;;;1803624;78;21077;-71
2021/06/03 10:35:37;;;;;;;9.05;4.58;;;23.60;99.90;;;;;;1835166;77;21531;-71
2021/06/03 10:38:06;;;;;;;14.13;5.12;;;23.70;99.90;;;;;;1820421;77;21520;-71
2021/06/03 10:40:36;;;;;;;10.72;5.10;;;23.60;99.90;;;;;;1835001;77;21666;-71
2021/06/03 10:43:05;;;;;;;8.60;4.70;;;23.70;99.90;;;;;;1834372;77;21186;-70
2021/06/03 10:45:35;;;;;;;9.48;5.17;;;23.70;99.90;;;;;;1848858;77;21048;-71
2021/06/03 10:48:03;;;;;;;9.15;5.05;;;23.70;99.90;;;;;;1836200;77;21174;-72
2021/06/03 10:50:34;;;;;;;11.83;5.00;;;23.70;99.90;;;;;;1833226;77;21077;-72
2021/06/03 10:53:14;;;;;;;9.28;5.30;;;23.80;99.90;;;;;;1834237;77;21212;-73
2021/06/03 10:55:48;;;;;;;8.78;4.70;;;23.80;99.90;;;;;;1859145;77;21053;-73
2021/06/03 10:58:17;;;;;;;6.00;4.58;;;23.80;99.90;;;;;;1829521;76;21745;-73
2021/06/03 11:00:50;;;;;;;7.45;5.33;;;23.80;99.90;;;;;;1829302;77;21182;-73
2021/06/03 11:03:24;;;;;;;6.80;4.50;;;23.80;99.90;;;;;;1818942;77;21085;-73
2021/06/03 11:06:07;;;;;;;8.15;4.42;;;23.80;99.90;;;;;;1831631;77;21226;-73
2021/06/03 11:08:44;;;;;;;6.33;4.42;;;23.80;99.90;;;;;;1812443;78;21113;-73
2021/06/03 11:11:14;;;;;;;8.30;4.92;;;23.80;99.90;;;;;;1831586;78;21559;-73
2021/06/03 11:13:51;;;;;;;7.12;5.08;;;23.80;99.90;;;;;;1836919;77;21111;-73
2021/06/03 11:16:23;;;;;;;13.93;4.83;;;23.80;99.90;;;;;;1849938;76;21109;-73
2021/06/03 11:18:59;;;;;;;11.08;4.90;;;23.90;99.90;;;;;;1819747;77;21118;-70
2021/06/03 11:21:35;;;;;;;5.60;4.53;;;23.90;99.90;;;;;;1810707;78;21152;-70
2021/06/03 11:24:14;;;;;;;6.37;4.30;;;23.90;99.90;;;;;;1812459;77;21588;-71
2021/06/03 11:26:50;;;;;;;5.85;4.40;;;23.90;99.90;;;;;;1817220;78;21221;-71
2021/06/03 11:29:24;;;;;;;11.73;4.47;;;23.90;99.90;;;;;;1824858;77;21589;-70
2021/06/03 11:32:07;;;;;;;10.98;4.92;;;24.00;99.90;;;;;;1823477;78;21065;-71
2021/06/03 11:34:43;;;;;;;7.10;4.20;;;24.00;99.90;;;;;;1819338;78;21116;-70
2021/06/03 11:37:26;;;;;;;7.28;3.83;;;24.00;99.90;;;;;;1831773;77;21207;-71
2021/06/03 11:40:02;;;;;;;9.80;4.28;;;24.10;99.90;;;;;;1837192;77;21113;-72
2021/06/03 11:42:41;;;;;;;10.28;3.72;;;24.10;99.90;;;;;;1828854;78;21096;-72
2021/06/03 11:45:20;;;;;;;9.73;4.25;;;24.20;99.90;;;;;;1835984;77;21175;-72
2021/06/03 11:47:57;;;;;;;9.78;4.00;;;24.30;99.90;;;;;;1863057;76;21125;-71
2021/06/03 11:50:27;;;;;;;10.38;4.20;;;24.30;99.90;;;;;;1861534;77;21148;-71
2021/06/03 11:53:05;;;;;;;5.00;3.70;;;24.40;99.90;;;;;;1831860;78;21574;-72
2021/06/03 11:55:39;;;;;;;7.53;4.50;;;24.60;99.90;;;;;;1848427;77;21136;-70
2021/06/03 11:58:16;;;;;;;9.00;4.17;;;24.60;99.90;;;;;;1853913;77;21577;-68
2021/06/03 12:01:04;;;;;;;4.70;3.60;;;24.70;99.90;;;;;;1862578;77;21562;-69
2021/06/03 12:03:40;;;;;;;9.55;4.47;;;24.80;99.90;;;;;;1834211;77;21108;-70
2021/06/03 12:06:25;;;;;;;7.10;4.00;;;24.90;99.90;;;;;;1824076;78;21130;-69
2021/06/03 12:08:55;;;;;;;6.85;4.05;;;25.00;99.90;;;;;;1801586;79;21389;-69
2021/06/03 12:11:38;;;;;;;8.70;4.00;;;25.20;99.90;;;;;;1811770;78;21599;-69
2021/06/03 12:14:07;;;;;;;7.10;3.90;;;25.30;99.90;;;;;;1861224;77;21190;-69
2021/06/03 12:16:37;;;;;;;9.58;4.72;;;25.40;99.90;;;;;;1835268;77;22197;-70
2021/06/03 12:19:14;;;;;;;8.50;4.33;;;25.50;99.90;;;;;;1806594;77;21381;-70
2021/06/03 12:21:43;;;;;;;9.38;4.10;;;25.50;99.60;;;;;;1837283;77;21624;-69
2021/06/03 12:24:12;;;;;;;14.23;4.17;;;25.60;99.90;;;;;;1821218;77;21158;-70
2021/06/03 12:26:42;;;;;;;9.03;4.10;;;25.70;99.70;;;;;;1829185;77;21117;-70
2021/06/03 12:29:27;;;;;;;9.45;4.67;;;25.70;99.50;;;;;;1826058;77;21186;-70
2021/06/03 12:31:55;;;;;;;6.45;3.98;;;25.80;98.60;;;;;;1834566;77;21672;-70
2021/06/03 12:34:27;;;;;;;7.30;4.05;;;25.80;99.70;;;;;;1834180;77;21179;-70
2021/06/03 12:36:55;;;;;;;7.90;4.15;;;25.80;99.00;;;;;;1831795;77;21117;-69
2021/06/03 12:39:25;;;;;;;9.10;4.00;;;25.70;99.40;;;;;;1849864;77;21500;-70
2021/06/03 12:41:55;;;;;;;11.35;4.03;;;25.70;99.30;;;;;;1849807;77;21535;-69
2021/06/03 12:44:23;;;;;;;6.80;4.20;;;25.60;99.00;;;;;;1829175;77;21128;-69
2021/06/03 12:46:59;;;;;;;6.47;3.80;;;25.60;99.30;;;;;;1831946;78;21089;-70
2021/06/03 12:49:27;;;;;;;8.40;3.70;;;25.50;99.30;;;;;;1831173;78;21145;-69
2021/06/03 12:52:00;;;;;;;8.70;4.00;;;25.40;98.80;;;;;;1842999;77;21478;-69
2021/06/03 12:54:39;;;;;;;10.35;4.45;;;25.30;98.20;;;;;;1814951;77;21658;-69
2021/06/03 12:57:10;;;;;;;7.53;3.90;;;25.20;99.30;;;;;;1810696;77;21098;-69
2021/06/03 12:59:39;;;;;;;6.97;3.58;;;25.20;98.70;;;;;;1831193;77;21283;-70
2021/06/03 13:02:16;;;;;;;7.30;3.85;;;25.20;98.90;;;;;;1816188;78;21566;-69